Terminal Aerodrome Forecast
Issued by NWS

Home | Current Version | Previous Version | Text Only | Print | Product List | Glossary Off
Versions: 1 2 3 4 5 6 7 8 9 10 11 12 13 14 15 16 17 18 19 20 21

000
FTUS43 KSGF 190500
TAFJLN
TAF
KJLN 190520Z 1906/2006 VRB03KT 6SM BR OVC003
     FM190800 VRB03KT 1SM BR OVC002
     FM191000 VRB03KT 1/2SM FG VV002
     FM191500 VRB03KT 3SM BR OVC004
     FM191800 VRB03KT 5SM BR OVC007
     FM192000 VRB03KT P6SM OVC010
     FM200200 VRB03KT 6SM BR OVC008=

USA.gov is the U.S. government's official web portal to all federal, state and local government web resources and services.